sensor_id;sensor_type;location;lat;lon;timestamp;P1;durP1;ratioP1;P2;durP2;ratioP2
20314;SDS011;10315;50.958;13.080;2023-05-21T00:01:13;40.40;;;21.23;;
20314;SDS011;10315;50.958;13.080;2023-05-21T00:11:16;39.67;;;20.33;;
20314;SDS011;10315;50.958;13.080;2023-05-21T00:21:18;37.90;;;20.03;;
20314;SDS011;10315;50.958;13.080;2023-05-21T00:31:23;41.27;;;20.93;;
20314;SDS011;10315;50.958;13.080;2023-05-21T00:41:24;39.50;;;19.70;;
20314;SDS011;10315;50.958;13.080;2023-05-21T00:51:27;40.47;;;19.80;;
20314;SDS011;10315;50.958;13.080;2023-05-21T01:01:30;33.63;;;18.77;;
20314;SDS011;10315;50.958;13.080;2023-05-21T01:11:37;37.60;;;18.43;;
20314;SDS011;10315;50.958;13.080;2023-05-21T01:21:43;36.63;;;17.83;;
20314;SDS011;10315;50.958;13.080;2023-05-21T01:31:51;32.07;;;17.33;;
20314;SDS011;10315;50.958;13.080;2023-05-21T01:41:56;31.27;;;17.75;;
20314;SDS011;10315;50.958;13.080;2023-05-21T01:52:00;38.25;;;18.45;;
20314;SDS011;10315;50.958;13.080;2023-05-21T02:02:01;33.90;;;17.97;;
20314;SDS011;10315;50.958;13.080;2023-05-21T02:12:05;30.73;;;17.30;;
20314;SDS011;10315;50.958;13.080;2023-05-21T02:22:08;33.43;;;18.20;;
20314;SDS011;10315;50.958;13.080;2023-05-21T02:32:11;35.97;;;18.03;;
20314;SDS011;10315;50.958;13.080;2023-05-21T02:42:13;37.37;;;17.83;;
20314;SDS011;10315;50.958;13.080;2023-05-21T02:52:16;33.53;;;17.97;;
20314;SDS011;10315;50.958;13.080;2023-05-21T03:02:18;33.37;;;17.63;;
20314;SDS011;10315;50.958;13.080;2023-05-21T03:12:21;33.60;;;17.63;;
20314;SDS011;10315;50.958;13.080;2023-05-21T03:22:23;30.23;;;17.53;;
20314;SDS011;10315;50.958;13.080;2023-05-21T03:32:26;33.13;;;17.10;;
20314;SDS011;10315;50.958;13.080;2023-05-21T03:42:27;29.63;;;16.63;;
20314;SDS011;10315;50.958;13.080;2023-05-21T03:52:30;32.58;;;16.08;;
20314;SDS011;10315;50.958;13.080;2023-05-21T04:02:32;31.08;;;16.70;;
20314;SDS011;10315;50.958;13.080;2023-05-21T04:12:34;32.33;;;16.92;;
20314;SDS011;10315;50.958;13.080;2023-05-21T04:22:36;28.25;;;15.40;;
20314;SDS011;10315;50.958;13.080;2023-05-21T04:32:39;26.25;;;15.05;;
20314;SDS011;10315;50.958;13.080;2023-05-21T04:42:44;26.25;;;15.00;;
20314;SDS011;10315;50.958;13.080;2023-05-21T04:52:48;30.98;;;15.07;;
20314;SDS011;10315;50.958;13.080;2023-05-21T05:02:50;26.98;;;15.48;;
20314;SDS011;10315;50.958;13.080;2023-05-21T05:12:53;28.75;;;16.27;;
20314;SDS011;10315;50.958;13.080;2023-05-21T05:22:54;23.88;;;14.82;;
20314;SDS011;10315;50.958;13.080;2023-05-21T05:32:57;30.67;;;16.92;;
20314;SDS011;10315;50.958;13.080;2023-05-21T05:42:59;27.33;;;15.70;;
20314;SDS011;10315;50.958;13.080;2023-05-21T05:53:02;27.23;;;16.80;;
20314;SDS011;10315;50.958;13.080;2023-05-21T06:03:03;27.30;;;16.45;;
20314;SDS011;10315;50.958;13.080;2023-05-21T06:13:06;29.35;;;16.73;;
20314;SDS011;10315;50.958;13.080;2023-05-21T06:23:08;28.13;;;16.13;;
20314;SDS011;10315;50.958;13.080;2023-05-21T06:33:11;18.60;;;12.98;;
20314;SDS011;10315;50.958;13.080;2023-05-21T06:43:12;13.75;;;11.45;;
20314;SDS011;10315;50.958;13.080;2023-05-21T06:53:15;16.60;;;11.88;;
20314;SDS011;10315;50.958;13.080;2023-05-21T07:03:17;13.25;;;10.88;;
20314;SDS011;10315;50.958;13.080;2023-05-21T07:13:25;13.60;;;11.20;;
20314;SDS011;10315;50.958;13.080;2023-05-21T07:23:27;14.45;;;11.05;;
20314;SDS011;10315;50.958;13.080;2023-05-21T07:33:30;14.32;;;11.05;;
20314;SDS011;10315;50.958;13.080;2023-05-21T07:43:31;12.45;;;9.75;;
20314;SDS011;10315;50.958;13.080;2023-05-21T07:53:34;12.63;;;9.57;;
20314;SDS011;10315;50.958;13.080;2023-05-21T08:03:36;12.18;;;9.30;;
20314;SDS011;10315;50.958;13.080;2023-05-21T08:13:41;10.73;;;8.80;;
20314;SDS011;10315;50.958;13.080;2023-05-21T08:23:43;13.18;;;8.60;;
20314;SDS011;10315;50.958;13.080;2023-05-21T08:33:49;11.38;;;8.88;;
20314;SDS011;10315;50.958;13.080;2023-05-21T08:43:55;10.23;;;8.32;;
20314;SDS011;10315;50.958;13.080;2023-05-21T08:53:58;11.32;;;8.07;;
20314;SDS011;10315;50.958;13.080;2023-05-21T09:04:02;10.63;;;8.52;;
20314;SDS011;10315;50.958;13.080;2023-05-21T09:14:06;9.38;;;8.02;;
20314;SDS011;10315;50.958;13.080;2023-05-21T09:24:08;9.10;;;8.10;;
20314;SDS011;10315;50.958;13.080;2023-05-21T09:34:11;8.60;;;7.70;;
20314;SDS011;10315;50.958;13.080;2023-05-21T09:44:13;11.70;;;8.07;;
20314;SDS011;10315;50.958;13.080;2023-05-21T09:54:16;10.60;;;7.78;;
20314;SDS011;10315;50.958;13.080;2023-05-21T10:04:18;8.00;;;6.95;;
20314;SDS011;10315;50.958;13.080;2023-05-21T10:14:24;8.90;;;7.28;;
20314;SDS011;10315;50.958;13.080;2023-05-21T10:24:27;10.15;;;7.47;;
20314;SDS011;10315;50.958;13.080;2023-05-21T10:34:38;10.23;;;7.13;;
20314;SDS011;10315;50.958;13.080;2023-05-21T10:44:43;9.93;;;7.15;;
20314;SDS011;10315;50.958;13.080;2023-05-21T11:05:37;9.45;;;6.43;;
20314;SDS011;10315;50.958;13.080;2023-05-21T11:26:06;11.43;;;7.15;;
20314;SDS011;10315;50.958;13.080;2023-05-21T11:36:11;12.25;;;6.63;;
20314;SDS011;10315;50.958;13.080;2023-05-21T11:46:13;8.98;;;6.63;;
20314;SDS011;10315;50.958;13.080;2023-05-21T11:56:16;11.35;;;6.90;;
20314;SDS011;10315;50.958;13.080;2023-05-21T12:06:24;9.43;;;6.70;;
20314;SDS011;10315;50.958;13.080;2023-05-21T12:16:27;12.57;;;8.05;;
20314;SDS011;10315;50.958;13.080;2023-05-21T12:26:29;11.73;;;8.70;;
20314;SDS011;10315;50.958;13.080;2023-05-21T12:36:36;17.25;;;8.02;;
20314;SDS011;10315;50.958;13.080;2023-05-21T12:46:38;13.18;;;8.40;;
20314;SDS011;10315;50.958;13.080;2023-05-21T12:56:44;11.95;;;7.82;;
20314;SDS011;10315;50.958;13.080;2023-05-21T13:06:45;15.10;;;8.88;;
20314;SDS011;10315;50.958;13.080;2023-05-21T13:16:48;11.88;;;8.38;;
20314;SDS011;10315;50.958;13.080;2023-05-21T13:26:50;11.93;;;8.32;;
20314;SDS011;10315;50.958;13.080;2023-05-21T13:36:53;10.80;;;8.70;;
20314;SDS011;10315;50.958;13.080;2023-05-21T13:46:54;13.30;;;8.35;;
20314;SDS011;10315;50.958;13.080;2023-05-21T13:56:57;11.55;;;8.30;;
20314;SDS011;10315;50.958;13.080;2023-05-21T14:07:00;12.13;;;8.48;;
20314;SDS011;10315;50.958;13.080;2023-05-21T14:17:04;13.75;;;8.95;;
20314;SDS011;10315;50.958;13.080;2023-05-21T14:27:05;17.10;;;9.55;;
20314;SDS011;10315;50.958;13.080;2023-05-21T14:37:08;14.63;;;8.75;;
20314;SDS011;10315;50.958;13.080;2023-05-21T14:47:10;14.82;;;9.13;;
20314;SDS011;10315;50.958;13.080;2023-05-21T14:57:13;16.55;;;9.43;;
20314;SDS011;10315;50.958;13.080;2023-05-21T15:07:15;13.88;;;10.60;;
20314;SDS011;10315;50.958;13.080;2023-05-21T15:17:18;14.70;;;10.50;;
20314;SDS011;10315;50.958;13.080;2023-05-21T15:27:19;14.38;;;9.90;;
20314;SDS011;10315;50.958;13.080;2023-05-21T15:37:23;13.60;;;10.07;;
20314;SDS011;10315;50.958;13.080;2023-05-21T15:47:25;17.02;;;10.82;;
20314;SDS011;10315;50.958;13.080;2023-05-21T15:57:28;14.32;;;10.35;;
20314;SDS011;10315;50.958;13.080;2023-05-21T16:07:30;11.75;;;8.90;;
20314;SDS011;10315;50.958;13.080;2023-05-21T16:17:33;12.65;;;7.63;;
20314;SDS011;10315;50.958;13.080;2023-05-21T16:27:35;11.77;;;6.80;;
20314;SDS011;10315;50.958;13.080;2023-05-21T16:37:38;14.43;;;7.38;;
20314;SDS011;10315;50.958;13.080;2023-05-21T16:47:39;14.98;;;8.05;;
20314;SDS011;10315;50.958;13.080;2023-05-21T16:57:42;11.60;;;8.27;;
20314;SDS011;10315;50.958;13.080;2023-05-21T17:07:44;10.13;;;7.57;;
20314;SDS011;10315;50.958;13.080;2023-05-21T17:17:46;9.52;;;6.95;;
20314;SDS011;10315;50.958;13.080;2023-05-21T17:27:48;12.88;;;7.13;;
20314;SDS011;10315;50.958;13.080;2023-05-21T17:37:52;9.40;;;6.75;;
20314;SDS011;10315;50.958;13.080;2023-05-21T17:47:54;8.80;;;6.55;;
20314;SDS011;10315;50.958;13.080;2023-05-21T17:57:59;9.73;;;7.18;;
20314;SDS011;10315;50.958;13.080;2023-05-21T18:08:00;12.18;;;6.57;;
20314;SDS011;10315;50.958;13.080;2023-05-21T18:18:03;12.20;;;7.28;;
20314;SDS011;10315;50.958;13.080;2023-05-21T18:28:05;14.02;;;5.85;;
20314;SDS011;10315;50.958;13.080;2023-05-21T18:38:08;9.15;;;6.45;;
20314;SDS011;10315;50.958;13.080;2023-05-21T18:48:10;10.90;;;6.47;;
20314;SDS011;10315;50.958;13.080;2023-05-21T18:58:13;10.80;;;6.57;;
20314;SDS011;10315;50.958;13.080;2023-05-21T19:08:15;8.23;;;6.60;;
20314;SDS011;10315;50.958;13.080;2023-05-21T19:18:18;8.55;;;6.30;;
20314;SDS011;10315;50.958;13.080;2023-05-21T19:28:20;12.20;;;7.82;;
20314;SDS011;10315;50.958;13.080;2023-05-21T19:38:23;12.05;;;7.25;;
20314;SDS011;10315;50.958;13.080;2023-05-21T19:48:24;10.23;;;6.57;;
20314;SDS011;10315;50.958;13.080;2023-05-21T19:58:27;10.20;;;6.85;;
20314;SDS011;10315;50.958;13.080;2023-05-21T20:08:29;11.70;;;6.93;;
20314;SDS011;10315;50.958;13.080;2023-05-21T20:18:32;10.02;;;6.90;;
20314;SDS011;10315;50.958;13.080;2023-05-21T20:28:33;13.07;;;7.82;;
20314;SDS011;10315;50.958;13.080;2023-05-21T20:38:37;12.75;;;7.40;;
20314;SDS011;10315;50.958;13.080;2023-05-21T20:48:40;11.43;;;7.38;;
20314;SDS011;10315;50.958;13.080;2023-05-21T20:58:43;12.85;;;8.10;;
20314;SDS011;10315;50.958;13.080;2023-05-21T21:08:45;15.20;;;7.90;;
20314;SDS011;10315;50.958;13.080;2023-05-21T21:18:50;10.98;;;8.00;;
20314;SDS011;10315;50.958;13.080;2023-05-21T21:28:51;12.75;;;8.70;;
20314;SDS011;10315;50.958;13.080;2023-05-21T21:38:56;13.65;;;9.07;;
20314;SDS011;10315;50.958;13.080;2023-05-21T21:48:58;12.65;;;8.77;;
20314;SDS011;10315;50.958;13.080;2023-05-21T21:59:01;11.95;;;8.60;;
20314;SDS011;10315;50.958;13.080;2023-05-21T22:09:03;12.95;;;8.57;;
20314;SDS011;10315;50.958;13.080;2023-05-21T22:19:06;15.85;;;8.93;;
20314;SDS011;10315;50.958;13.080;2023-05-21T22:29:08;16.75;;;8.50;;
20314;SDS011;10315;50.958;13.080;2023-05-21T22:39:11;17.30;;;8.75;;
20314;SDS011;10315;50.958;13.080;2023-05-21T22:49:13;15.80;;;8.50;;
20314;SDS011;10315;50.958;13.080;2023-05-21T22:59:16;11.65;;;8.30;;
20314;SDS011;10315;50.958;13.080;2023-05-21T23:09:18;13.50;;;8.32;;
20314;SDS011;10315;50.958;13.080;2023-05-21T23:19:21;11.23;;;7.68;;
20314;SDS011;10315;50.958;13.080;2023-05-21T23:29:22;16.00;;;8.88;;
20314;SDS011;10315;50.958;13.080;2023-05-21T23:39:25;15.68;;;8.90;;
20314;SDS011;10315;50.958;13.080;2023-05-21T23:49:27;13.93;;;9.10;;
20314;SDS011;10315;50.958;13.080;2023-05-21T23:59:30;14.77;;;8.95;;
